地図

経路データ

SID SEASON NUMBER BASIN SUBBASIN NAME ISO_TIME NATURE LAT LON WMO_WIND WMO_PRES WMO_AGENCY TRACK_TYPE DIST2LAND LANDFALL IFLAG USA_AGENCY USA_ATCF_ID USA_LAT USA_LON USA_RECORD USA_STATUS USA_WIND USA_PRES USA_SSHS USA_R34_NE USA_R34_SE USA_R34_SW USA_R34_NW USA_R50_NE USA_R50_SE USA_R50_SW USA_R50_NW USA_R64_NE USA_R64_SE USA_R64_SW USA_R64_NW USA_POCI USA_ROCI USA_RMW USA_EYE TOKYO_LAT TOKYO_LON TOKYO_GRADE TOKYO_WIND TOKYO_PRES TOKYO_R50_DIR TOKYO_R50_LONG TOKYO_R50_SHORT TOKYO_R30_DIR TOKYO_R30_LONG TOKYO_R30_SHORT TOKYO_LAND CMA_LAT CMA_LON CMA_CAT CMA_WIND CMA_PRES HKO_LAT HKO_LON HKO_CAT HKO_WIND HKO_PRES NEWDELHI_LAT NEWDELHI_LON NEWDELHI_GRADE NEWDELHI_WIND NEWDELHI_PRES NEWDELHI_CI NEWDELHI_DP NEWDELHI_POCI REUNION_LAT REUNION_LON REUNION_TYPE REUNION_WIND REUNION_PRES REUNION_TNUM REUNION_CI REUNION_RMW REUNION_R34_NE REUNION_R34_SE REUNION_R34_SW REUNION_R34_NW REUNION_R50_NE REUNION_R50_SE REUNION_R50_SW REUNION_R50_NW REUNION_R64_NE REUNION_R64_SE REUNION_R64_SW REUNION_R64_NW BOM_LAT BOM_LON BOM_TYPE BOM_WIND BOM_PRES BOM_TNUM BOM_CI BOM_RMW BOM_R34_NE BOM_R34_SE BOM_R34_SW BOM_R34_NW BOM_R50_NE BOM_R50_SE BOM_R50_SW BOM_R50_NW BOM_R64_NE BOM_R64_SE BOM_R64_SW BOM_R64_NW BOM_ROCI BOM_POCI BOM_EYE BOM_POS_METHOD BOM_PRES_METHOD NADI_LAT NADI_LON NADI_CAT NADI_WIND NADI_PRES WELLINGTON_LAT WELLINGTON_LON WELLINGTON_WIND WELLINGTON_PRES DS824_LAT DS824_LON DS824_STAGE DS824_WIND DS824_PRES TD9636_LAT TD9636_LON TD9636_STAGE TD9636_WIND TD9636_PRES TD9635_LAT TD9635_LON TD9635_WIND TD9635_PRES TD9635_ROCI NEUMANN_LAT NEUMANN_LON NEUMANN_CLASS NEUMANN_WIND NEUMANN_PRES MLC_LAT MLC_LON MLC_CLASS MLC_WIND MLC_PRES USA_GUST BOM_GUST BOM_GUST_PER REUNION_GUST REUNION_GUST_PER USA_SEAHGT USA_SEARAD_NE USA_SEARAD_SE USA_SEARAD_SW USA_SEARAD_NW STORM_SPEED STORM_DIR
1903262N21288 1903 46 NA NA NOT_NAMED 1903-09-19 00:00:00 TS 20.8000 -71.6000 30 hurdat_atl main 111 111 O_____________ hurdat_atl AL051903 20.8000 -71.6000 TD 30 -1 5 349
1903262N21288 1903 46 NA NA NOT_NAMED 1903-09-19 03:00:00 TS 21.0575 -71.6599 main 135 134 P_____________ AL051903 21.0575 -71.6599 TD 30 -1 5 349
1903262N21288 1903 46 NA NA NOT_NAMED 1903-09-19 06:00:00 TS 21.3000 -71.7000 30 hurdat_atl main 135 135 O_____________ hurdat_atl AL051903 21.3000 -71.7000 TD 30 -1 5 354
1903262N21288 1903 46 NA NA NOT_NAMED 1903-09-19 09:00:00 TS 21.5150 -71.7075 main 138 138 P_____________ AL051903 21.5150 -71.7075 TD 30 -1 4 0
1903262N21288 1903 46 NA NA NOT_NAMED 1903-09-19 12:00:00 TS 21.7000 -71.7000 30 hurdat_atl main 145 145 O_____________ hurdat_atl AL051903 21.7000 -71.7000 TD 30 -1 3 2
1903262N21288 1903 46 NA NA NOT_NAMED 1903-09-19 15:00:00 TS 21.8575 -71.7000 main 155 155 P_____________ AL051903 21.8575 -71.7000 TD 30 -1 3 0
1903262N21288 1903 46 NA NA NOT_NAMED 1903-09-19 18:00:00 TS 22.0000 -71.7000 30 hurdat_atl main 161 161 O_____________ hurdat_atl AL051903 22.0000 -71.7000 TD 30 -1 3 5
1903262N21288 1903 46 NA NA NOT_NAMED 1903-09-19 21:00:00 TS 22.1500 -71.7000 main 174 167 P_____________ AL051903 22.1500 -71.7000 TD 30 -1 3 0
1903262N21288 1903 46 NA NA NOT_NAMED 1903-09-20 00:00:00 TS 22.3000 -71.7000 30 hurdat_atl main 182 182 O_____________ hurdat_atl AL051903 22.3000 -71.7000 TD 30 -1 3 5
1903262N21288 1903 46 NA NA NOT_NAMED 1903-09-20 03:00:00 TS 22.4425 -71.7000 main 189 189 P_____________ AL051903 22.4425 -71.7000 TD 30 -1 3 0
1903262N21288 1903 46 NA NA NOT_NAMED 1903-09-20 06:00:00 TS 22.6000 -71.7000 30 hurdat_atl main 206 206 O_____________ hurdat_atl AL051903 22.6000 -71.7000 TD 30 -1 3 2
1903262N21288 1903 46 NA NA NOT_NAMED 1903-09-20 09:00:00 TS 22.7850 -71.6925 main 223 223 P_____________ AL051903 22.7850 -71.6925 TD 30 -1 4 0
1903262N21288 1903 46 NA NA NOT_NAMED 1903-09-20 12:00:00 TS 23.0000 -71.7000 30 hurdat_atl main 241 241 O_____________ hurdat_atl AL051903 23.0000 -71.7000 TD 30 -1 5 356
1903262N21288 1903 46 NA NA NOT_NAMED 1903-09-20 15:00:00 TS 23.2350 -71.7350 main 260 260 P_____________ AL051903 23.2350 -71.7350 TD 30 -1 5 350
1903262N21288 1903 46 NA NA NOT_NAMED 1903-09-20 18:00:00 TS 23.5000 -71.8000 30 hurdat_atl main 285 285 O_____________ hurdat_atl AL051903 23.5000 -71.8000 TD 30 -1 6 346
1903262N21288 1903 46 NA NA NOT_NAMED 1903-09-20 21:00:00 TS 23.8000 -71.8925 main 311 311 P_____________ AL051903 23.8000 -71.8925 TD 30 -1 6 343
1903262N21288 1903 46 NA NA NOT_NAMED 1903-09-21 00:00:00 TS 24.1000 -72.0000 30 hurdat_atl main 340 340 O_____________ hurdat_atl AL051903 24.1000 -72.0000 TD 30 -1 6 342
1903262N21288 1903 46 NA NA NOT_NAMED 1903-09-21 03:00:00 TS 24.3650 -72.0926 main 369 369 P_____________ AL051903 24.3650 -72.0926 TD 30 -1 5 340
1903262N21288 1903 46 NA NA NOT_NAMED 1903-09-21 06:00:00 TS 24.6000 -72.2000 30 hurdat_atl main 388 388 O_____________ hurdat_atl AL051903 24.6000 -72.2000 TD 30 -1 5 332
1903262N21288 1903 46 NA NA NOT_NAMED 1903-09-21 09:00:00 TS 24.8000 -72.3500 main 407 407 P_____________ AL051903 24.8000 -72.3500 TD 30 -1 5 326
1903262N21288 1903 46 NA NA NOT_NAMED 1903-09-21 12:00:00 TS 25.0000 -72.5000 30 hurdat_atl main 427 427 O_____________ hurdat_atl AL051903 25.0000 -72.5000 TD 30 -1 5 332
1903262N21288 1903 46 NA NA NOT_NAMED 1903-09-21 15:00:00 TS 25.2425 -72.6076 main 448 448 P_____________ AL051903 25.2425 -72.6076 TD 30 -1 5 340
1903262N21288 1903 46 NA NA NOT_NAMED 1903-09-21 18:00:00 TS 25.5000 -72.7000 30 hurdat_atl main 481 481 O_____________ hurdat_atl AL051903 25.5000 -72.7000 TD 30 -1 5 341
1903262N21288 1903 46 NA NA NOT_NAMED 1903-09-21 21:00:00 TS 25.7500 -72.8000 main 503 503 P_____________ AL051903 25.7500 -72.8000 TD 30 -1 5 340
1903262N21288 1903 46 NA NA NOT_NAMED 1903-09-22 00:00:00 TS 26.0000 -72.9000 30 hurdat_atl main 510 504 O_____________ hurdat_atl AL051903 26.0000 -72.9000 TD 30 -1 5 340
1903262N21288 1903 46 NA NA NOT_NAMED 1903-09-22 03:00:00 TS 26.2500 -73.0000 main 508 507 P_____________ AL051903 26.2500 -73.0000 TD 30 -1 5 340
1903262N21288 1903 46 NA NA NOT_NAMED 1903-09-22 06:00:00 TS 26.5000 -73.1000 30 hurdat_atl main 512 507 O_____________ hurdat_atl AL051903 26.5000 -73.1000 TD 30 -1 5 340
1903262N21288 1903 46 NA NA NOT_NAMED 1903-09-22 09:00:00 TS 26.7500 -73.2000 main 511 510 P_____________ AL051903 26.7500 -73.2000 TD 32 -1 5 340
1903262N21288 1903 46 NA NA NOT_NAMED 1903-09-22 12:00:00 TS 27.0000 -73.3000 35 hurdat_atl main 514 510 O_____________ hurdat_atl AL051903 27.0000 -73.3000 TS 35 0 5 340
1903262N21288 1903 46 NA NA NOT_NAMED 1903-09-22 15:00:00 TS 27.2575 -73.4075 main 520 516 P_____________ AL051903 27.2575 -73.4075 TS 35 0 5 340
1903262N21288 1903 46 NA NA NOT_NAMED 1903-09-22 18:00:00 TS 27.5000 -73.5000 35 hurdat_atl main 522 519 O_____________ hurdat_atl AL051903 27.5000 -73.5000 TS 35 0 5 342
1903262N21288 1903 46 NA NA NOT_NAMED 1903-09-22 21:00:00 TS 27.6925 -73.5650 main 525 525 P_____________ AL051903 27.6925 -73.5650 TS 37 0 4 348
1903262N21288 1903 46 NA NA NOT_NAMED 1903-09-23 00:00:00 TS 27.9000 -73.6000 40 hurdat_atl main 537 537 O_____________ hurdat_atl AL051903 27.9000 -73.6000 TS 40 0 5 355
1903262N21288 1903 46 NA NA NOT_NAMED 1903-09-23 03:00:00 TS 28.1925 -73.6001 main 557 557 P_____________ AL051903 28.1925 -73.6001 TS 40 0 6 1
1903262N21288 1903 46 NA NA NOT_NAMED 1903-09-23 06:00:00 TS 28.5000 -73.6000 40 hurdat_atl main 578 578 O_____________ hurdat_atl AL051903 28.5000 -73.6000 TS 40 0 5 355
1903262N21288 1903 46 NA NA NOT_NAMED 1903-09-23 09:00:00 TS 28.7200 -73.6351 main 592 592 P_____________ AL051903 28.7200 -73.6351 TS 42 0 5 350
1903262N21288 1903 46 NA NA NOT_NAMED 1903-09-23 12:00:00 TS 29.0000 -73.7000 45 hurdat_atl main 608 608 O_____________ hurdat_atl AL051903 29.0000 -73.7000 TS 45 0 7 349
1903262N21288 1903 46 NA NA NOT_NAMED 1903-09-23 15:00:00 TS 29.4325 -73.7999 main 634 578 P_____________ AL051903 29.4325 -73.7999 TS 45 0 10 350
1903262N21288 1903 46 NA NA NOT_NAMED 1903-09-23 18:00:00 TS 30.0000 -73.9000 45 hurdat_atl main 578 513 O_____________ hurdat_atl AL051903 30.0000 -73.9000 TS 45 0 13 353
1903262N21288 1903 46 NA NA NOT_NAMED 1903-09-23 21:00:00 TS 30.6700 -73.9796 main 503 435 P_____________ AL051903 30.6700 -73.9796 TS 47 0 14 356
1903262N21288 1903 46 NA NA NOT_NAMED 1903-09-24 00:00:00 TS 31.4000 -74.0000 50 hurdat_atl main 435 371 O_____________ hurdat_atl AL051903 31.4000 -74.0000 TS 50 0 15 0
1903262N21288 1903 46 NA NA NOT_NAMED 1903-09-24 03:00:00 TS 32.1148 -73.9669 main 371 326 P_____________ AL051903 32.1148 -73.9669 TS 50 0 14 7
1903262N21288 1903 46 NA NA NOT_NAMED 1903-09-24 06:00:00 TS 32.8000 -73.8000 50 hurdat_atl main 326 299 O_____________ hurdat_atl AL051903 32.8000 -73.8000 TS 50 0 14 17
1903262N21288 1903 46 NA NA NOT_NAMED 1903-09-24 09:00:00 TS 33.4521 -73.4902 main 300 296 P_____________ AL051903 33.4521 -73.4902 TS 50 0 14 29
1903262N21288 1903 46 NA NA NOT_NAMED 1903-09-24 12:00:00 TS 34.0000 -73.0000 50 hurdat_atl main 303 302 O_____________ hurdat_atl AL051903 34.0000 -73.0000 TS 50 0 14 45
1903262N21288 1903 46 NA NA NOT_NAMED 1903-09-24 15:00:00 TS 34.4105 -72.3300 main 329 329 P_____________ AL051903 34.4105 -72.3300 TS 50 0 14 59
1903262N21288 1903 46 NA NA NOT_NAMED 1903-09-24 18:00:00 TS 34.7000 -71.6000 50 hurdat_atl main 373 373 O_____________ hurdat_atl AL051903 34.7000 -71.6000 TS 50 0 12 65
1903262N21288 1903 46 NA NA NOT_NAMED 1903-09-24 21:00:00 TS 34.9292 -70.9991 main 419 419 P_____________ AL051903 34.9292 -70.9991 TS 50 0 11 68
1903262N21288 1903 46 NA NA NOT_NAMED 1903-09-25 00:00:00 TS 35.1000 -70.4000 50 hurdat_atl main 467 467 O_____________ hurdat_atl AL051903 35.1000 -70.4000 TS 50 0 11 72
1903262N21288 1903 46 NA NA NOT_NAMED 1903-09-25 03:00:00 TS 35.2722 -69.7225 main 526 526 P_____________ AL051903 35.2722 -69.7225 TS 47 0 12 75
1903262N21288 1903 46 NA NA NOT_NAMED 1903-09-25 06:00:00 TS 35.4000 -69.0000 45 hurdat_atl main 587 587 O_____________ hurdat_atl AL051903 35.4000 -69.0000 TS 45 0 12 82
1903262N21288 1903 46 NA NA NOT_NAMED 1903-09-25 09:00:00 TS 35.4335 -68.3083 main 650 650 P_____________ AL051903 35.4335 -68.3083 TS 45 0 12 85
1903262N21288 1903 46 NA NA NOT_NAMED 1903-09-25 12:00:00 TS 35.5000 -67.5000 45 hurdat_atl main 721 721 O_____________ hurdat_atl AL051903 35.5000 -67.5000 TS 45 0 15 80
1903262N21288 1903 46 NA NA NOT_NAMED 1903-09-25 15:00:00 TS 35.7044 -66.4821 main 733 733 P_____________ AL051903 35.7044 -66.4821 TS 42 0 19 74
1903262N21288 1903 46 NA NA NOT_NAMED 1903-09-25 18:00:00 TS 36.0000 -65.3000 40 hurdat_atl main 752 752 O_____________ hurdat_atl AL051903 36.0000 -65.3000 TS 40 0 21 72
1903262N21288 1903 46 NA NA NOT_NAMED 1903-09-25 21:00:00 TS 36.3420 -64.0302 main 792 783 P_____________ AL051903 36.3420 -64.0302 TS 37 0 22 72
1903262N21288 1903 46 NA NA NOT_NAMED 1903-09-26 00:00:00 TS 36.7000 -62.7000 35 hurdat_atl main 788 782 O_____________ hurdat_atl AL051903 36.7000 -62.7000 TS 35 0 22 72
1903262N21288 1903 46 NA NA NOT_NAMED 1903-09-26 03:00:00 TS 37.0136 -61.3990 main 794 791 P_____________ AL051903 37.0136 -61.3990 TS 32 -1 22 74
1903262N21288 1903 46 NA NA NOT_NAMED 1903-09-26 06:00:00 TS 37.3000 -60.1000 30 hurdat_atl main 817 817 O_____________ hurdat_atl AL051903 37.3000 -60.1000 TD 30 -1 22 75
1903262N21288 1903 46 NA NA NOT_NAMED 1903-09-26 09:00:00 TS 37.5651 -58.7472 main 858 858 P_____________ AL051903 37.5651 -58.7472 TD 27 -1 21 76
1903262N21288 1903 46 NA NA NOT_NAMED 1903-09-26 12:00:00 TS 37.8000 -57.5000 25 hurdat_atl main 875 873 O_____________ hurdat_atl AL051903 37.8000 -57.5000 TD 25 -1 18 76
1903262N21288 1903 46 NA NA NOT_NAMED 1903-09-26 15:00:00 TS 38.0078 -56.4806 main 886 883 P_____________ AL051903 38.0078 -56.4806 TD 25 -1 15 75
1903262N21288 1903 46 NA NA NOT_NAMED 1903-09-26 18:00:00 TS 38.2000 -55.6000 25 hurdat_atl main 901 O_____________ hurdat_atl AL051903 38.2000 -55.6000 TD 25 -1 14 74

IBTrACS Databaseについて

本データベースは、米国NOAAが公開する1842年以降の世界の熱帯低気圧のベストトラックデータアーカイブInternational Best Track Archive for Climate Stewardship (IBTrACS)を、ウェブで閲覧しやすい形式に変換したものです。

最終更新日:2021-10-21